sensor_id;sensor_type;location;lat;lon;timestamp;P1;durP1;ratioP1;P2;durP2;ratioP2
305;SDS011;137;48.578;9.180;2022-11-27T00:02:26;44.10;;;14.60;;
305;SDS011;137;48.578;9.180;2022-11-27T00:04:54;30.30;;;12.47;;
305;SDS011;137;48.578;9.180;2022-11-27T00:07:21;13.97;;;10.60;;
305;SDS011;137;48.578;9.180;2022-11-27T00:09:48;14.00;;;10.17;;
305;SDS011;137;48.578;9.180;2022-11-27T00:12:15;13.30;;;9.40;;
305;SDS011;137;48.578;9.180;2022-11-27T00:14:42;10.00;;;7.80;;
305;SDS011;137;48.578;9.180;2022-11-27T00:17:08;10.10;;;8.00;;
305;SDS011;137;48.578;9.180;2022-11-27T00:19:35;9.13;;;8.23;;
305;SDS011;137;48.578;9.180;2022-11-27T00:22:04;15.77;;;8.90;;
305;SDS011;137;48.578;9.180;2022-11-27T00:24:30;11.30;;;8.37;;
305;SDS011;137;48.578;9.180;2022-11-27T00:26:57;12.07;;;9.40;;
305;SDS011;137;48.578;9.180;2022-11-27T00:29:24;11.80;;;9.80;;
305;SDS011;137;48.578;9.180;2022-11-27T00:31:53;9.20;;;7.60;;
305;SDS011;137;48.578;9.180;2022-11-27T00:34:20;9.33;;;8.20;;
305;SDS011;137;48.578;9.180;2022-11-27T00:36:47;10.83;;;8.80;;
305;SDS011;137;48.578;9.180;2022-11-27T00:39:15;10.20;;;8.23;;
305;SDS011;137;48.578;9.180;2022-11-27T00:41:43;13.50;;;8.00;;
305;SDS011;137;48.578;9.180;2022-11-27T00:44:11;9.97;;;7.13;;
305;SDS011;137;48.578;9.180;2022-11-27T00:46:38;8.97;;;7.67;;
305;SDS011;137;48.578;9.180;2022-11-27T00:49:06;12.30;;;8.73;;
305;SDS011;137;48.578;9.180;2022-11-27T00:51:34;10.87;;;8.53;;
305;SDS011;137;48.578;9.180;2022-11-27T00:54:01;13.40;;;9.73;;
305;SDS011;137;48.578;9.180;2022-11-27T00:56:30;13.20;;;9.10;;
305;SDS011;137;48.578;9.180;2022-11-27T00:58:58;28.27;;;11.43;;
305;SDS011;137;48.578;9.180;2022-11-27T01:01:27;33.33;;;11.83;;
305;SDS011;137;48.578;9.180;2022-11-27T01:03:56;73.40;;;13.53;;
305;SDS011;137;48.578;9.180;2022-11-27T01:06:24;82.63;;;15.30;;
305;SDS011;137;48.578;9.180;2022-11-27T01:08:51;94.90;;;18.60;;
305;SDS011;137;48.578;9.180;2022-11-27T01:11:20;80.23;;;17.87;;
305;SDS011;137;48.578;9.180;2022-11-27T01:13:51;123.17;;;21.80;;
305;SDS011;137;48.578;9.180;2022-11-27T01:16:19;87.87;;;17.47;;
305;SDS011;137;48.578;9.180;2022-11-27T01:18:47;52.83;;;13.40;;
305;SDS011;137;48.578;9.180;2022-11-27T01:21:16;62.87;;;14.63;;
305;SDS011;137;48.578;9.180;2022-11-27T01:23:44;36.83;;;12.50;;
305;SDS011;137;48.578;9.180;2022-11-27T01:26:12;46.43;;;12.40;;
305;SDS011;137;48.578;9.180;2022-11-27T01:28:40;98.00;;;16.53;;
305;SDS011;137;48.578;9.180;2022-11-27T01:31:11;147.87;;;22.20;;
305;SDS011;137;48.578;9.180;2022-11-27T01:33:40;87.87;;;16.50;;
305;SDS011;137;48.578;9.180;2022-11-27T01:36:09;110.30;;;17.80;;
305;SDS011;137;48.578;9.180;2022-11-27T01:38:37;158.47;;;19.03;;
305;SDS011;137;48.578;9.180;2022-11-27T01:41:05;163.20;;;19.63;;
305;SDS011;137;48.578;9.180;2022-11-27T01:43:37;167.13;;;21.80;;
305;SDS011;137;48.578;9.180;2022-11-27T01:46:10;130.57;;;18.80;;
305;SDS011;137;48.578;9.180;2022-11-27T01:48:43;132.07;;;17.93;;
305;SDS011;137;48.578;9.180;2022-11-27T01:51:12;150.73;;;19.10;;
305;SDS011;137;48.578;9.180;2022-11-27T01:53:39;102.53;;;15.07;;
305;SDS011;137;48.578;9.180;2022-11-27T01:56:07;79.90;;;13.40;;
305;SDS011;137;48.578;9.180;2022-11-27T01:58:33;80.63;;;14.27;;
305;SDS011;137;48.578;9.180;2022-11-27T02:01:01;8.10;;;6.77;;
305;SDS011;137;48.578;9.180;2022-11-27T02:03:29;6.93;;;5.63;;
305;SDS011;137;48.578;9.180;2022-11-27T02:05:56;7.77;;;6.57;;
305;SDS011;137;48.578;9.180;2022-11-27T02:08:23;7.93;;;7.13;;
305;SDS011;137;48.578;9.180;2022-11-27T02:10:51;8.90;;;7.77;;
305;SDS011;137;48.578;9.180;2022-11-27T02:13:22;9.70;;;8.80;;
305;SDS011;137;48.578;9.180;2022-11-27T02:15:56;9.00;;;7.87;;
305;SDS011;137;48.578;9.180;2022-11-27T02:18:32;9.50;;;7.30;;
305;SDS011;137;48.578;9.180;2022-11-27T02:21:08;8.90;;;7.50;;
305;SDS011;137;48.578;9.180;2022-11-27T02:29:31;9.60;;;7.87;;
305;SDS011;137;48.578;9.180;2022-11-27T02:32:01;7.73;;;6.97;;
305;SDS011;137;48.578;9.180;2022-11-27T02:34:34;7.03;;;6.33;;
305;SDS011;137;48.578;9.180;2022-11-27T02:37:07;9.20;;;7.63;;
305;SDS011;137;48.578;9.180;2022-11-27T02:39:40;10.40;;;7.97;;
305;SDS011;137;48.578;9.180;2022-11-27T02:42:13;7.17;;;6.47;;
305;SDS011;137;48.578;9.180;2022-11-27T02:44:47;9.10;;;7.93;;
305;SDS011;137;48.578;9.180;2022-11-27T02:47:17;7.63;;;6.87;;
305;SDS011;137;48.578;9.180;2022-11-27T02:49:45;7.57;;;6.23;;
305;SDS011;137;48.578;9.180;2022-11-27T02:52:15;7.47;;;6.20;;
305;SDS011;137;48.578;9.180;2022-11-27T02:54:44;7.60;;;5.47;;
305;SDS011;137;48.578;9.180;2022-11-27T02:57:13;8.13;;;7.33;;
305;SDS011;137;48.578;9.180;2022-11-27T02:59:42;8.67;;;7.37;;
305;SDS011;137;48.578;9.180;2022-11-27T03:02:12;7.80;;;6.40;;
305;SDS011;137;48.578;9.180;2022-11-27T03:04:44;7.40;;;6.70;;
305;SDS011;137;48.578;9.180;2022-11-27T03:07:15;11.60;;;7.60;;
305;SDS011;137;48.578;9.180;2022-11-27T03:09:49;11.30;;;8.07;;
305;SDS011;137;48.578;9.180;2022-11-27T03:12:18;7.53;;;6.10;;
305;SDS011;137;48.578;9.180;2022-11-27T03:14:45;6.33;;;5.70;;
305;SDS011;137;48.578;9.180;2022-11-27T03:17:17;7.30;;;6.60;;
305;SDS011;137;48.578;9.180;2022-11-27T03:19:57;8.43;;;6.67;;
305;SDS011;137;48.578;9.180;2022-11-27T03:22:28;8.90;;;7.30;;
305;SDS011;137;48.578;9.180;2022-11-27T03:24:55;7.60;;;5.33;;
305;SDS011;137;48.578;9.180;2022-11-27T03:27:24;10.67;;;8.33;;
305;SDS011;137;48.578;9.180;2022-11-27T03:29:58;9.40;;;7.40;;
305;SDS011;137;48.578;9.180;2022-11-27T03:32:27;7.83;;;6.87;;
305;SDS011;137;48.578;9.180;2022-11-27T03:34:56;8.60;;;6.37;;
305;SDS011;137;48.578;9.180;2022-11-27T03:37:23;10.67;;;8.30;;
305;SDS011;137;48.578;9.180;2022-11-27T03:39:50;8.90;;;6.63;;
305;SDS011;137;48.578;9.180;2022-11-27T03:42:18;9.80;;;7.27;;
305;SDS011;137;48.578;9.180;2022-11-27T03:44:52;11.60;;;8.73;;
305;SDS011;137;48.578;9.180;2022-11-27T03:47:33;8.93;;;7.30;;
305;SDS011;137;48.578;9.180;2022-11-27T03:50:11;6.43;;;5.67;;
305;SDS011;137;48.578;9.180;2022-11-27T03:52:49;7.80;;;6.83;;
305;SDS011;137;48.578;9.180;2022-11-27T03:55:22;9.13;;;7.23;;
305;SDS011;137;48.578;9.180;2022-11-27T03:57:57;8.07;;;6.10;;
305;SDS011;137;48.578;9.180;2022-11-27T04:00:26;7.37;;;6.00;;
305;SDS011;137;48.578;9.180;2022-11-27T04:02:56;6.30;;;5.70;;
305;SDS011;137;48.578;9.180;2022-11-27T04:05:23;7.37;;;6.67;;
305;SDS011;137;48.578;9.180;2022-11-27T04:07:50;6.20;;;5.30;;
305;SDS011;137;48.578;9.180;2022-11-27T04:10:17;8.27;;;6.67;;
305;SDS011;137;48.578;9.180;2022-11-27T04:12:44;7.80;;;6.13;;
305;SDS011;137;48.578;9.180;2022-11-27T04:15:11;7.40;;;5.17;;
305;SDS011;137;48.578;9.180;2022-11-27T04:17:38;6.47;;;5.63;;
305;SDS011;137;48.578;9.180;2022-11-27T04:20:07;7.00;;;6.00;;
305;SDS011;137;48.578;9.180;2022-11-27T04:22:35;6.53;;;5.43;;
305;SDS011;137;48.578;9.180;2022-11-27T04:25:02;7.47;;;6.70;;
305;SDS011;137;48.578;9.180;2022-11-27T04:27:30;6.50;;;5.50;;
305;SDS011;137;48.578;9.180;2022-11-27T04:29:57;5.13;;;4.60;;
305;SDS011;137;48.578;9.180;2022-11-27T04:32:24;6.47;;;4.70;;
305;SDS011;137;48.578;9.180;2022-11-27T04:34:50;5.63;;;4.93;;
305;SDS011;137;48.578;9.180;2022-11-27T04:37:19;6.20;;;5.20;;
305;SDS011;137;48.578;9.180;2022-11-27T04:39:45;7.33;;;6.13;;
305;SDS011;137;48.578;9.180;2022-11-27T04:42:12;6.20;;;5.40;;
305;SDS011;137;48.578;9.180;2022-11-27T04:44:39;5.13;;;4.63;;
305;SDS011;137;48.578;9.180;2022-11-27T04:47:06;4.80;;;4.30;;
305;SDS011;137;48.578;9.180;2022-11-27T04:49:32;5.97;;;4.77;;
305;SDS011;137;48.578;9.180;2022-11-27T04:51:59;6.53;;;4.57;;
305;SDS011;137;48.578;9.180;2022-11-27T04:54:30;6.63;;;4.93;;
305;SDS011;137;48.578;9.180;2022-11-27T04:56:56;6.90;;;4.90;;
305;SDS011;137;48.578;9.180;2022-11-27T04:59:23;5.33;;;4.37;;
305;SDS011;137;48.578;9.180;2022-11-27T05:01:50;8.33;;;5.27;;
305;SDS011;137;48.578;9.180;2022-11-27T05:04:17;6.57;;;5.47;;
305;SDS011;137;48.578;9.180;2022-11-27T05:06:45;6.07;;;5.40;;
305;SDS011;137;48.578;9.180;2022-11-27T05:09:11;7.73;;;5.40;;
305;SDS011;137;48.578;9.180;2022-11-27T05:11:40;7.30;;;5.87;;
305;SDS011;137;48.578;9.180;2022-11-27T05:14:07;6.60;;;5.80;;
305;SDS011;137;48.578;9.180;2022-11-27T05:16:44;7.00;;;5.33;;
305;SDS011;137;48.578;9.180;2022-11-27T05:19:13;6.50;;;5.90;;
305;SDS011;137;48.578;9.180;2022-11-27T05:21:41;6.23;;;5.63;;
305;SDS011;137;48.578;9.180;2022-11-27T05:24:08;6.63;;;5.33;;
305;SDS011;137;48.578;9.180;2022-11-27T05:26:36;5.77;;;5.10;;
305;SDS011;137;48.578;9.180;2022-11-27T05:29:05;5.50;;;4.70;;
305;SDS011;137;48.578;9.180;2022-11-27T05:31:33;6.97;;;6.20;;
305;SDS011;137;48.578;9.180;2022-11-27T05:34:00;8.73;;;8.03;;
305;SDS011;137;48.578;9.180;2022-11-27T05:36:28;6.27;;;5.17;;
305;SDS011;137;48.578;9.180;2022-11-27T05:38:55;6.23;;;5.47;;
305;SDS011;137;48.578;9.180;2022-11-27T05:41:22;6.10;;;5.50;;
305;SDS011;137;48.578;9.180;2022-11-27T05:43:49;5.67;;;4.67;;
305;SDS011;137;48.578;9.180;2022-11-27T05:46:17;5.80;;;5.20;;
305;SDS011;137;48.578;9.180;2022-11-27T05:48:45;6.73;;;4.63;;
305;SDS011;137;48.578;9.180;2022-11-27T05:51:12;6.93;;;6.23;;
305;SDS011;137;48.578;9.180;2022-11-27T05:53:39;5.43;;;4.93;;
305;SDS011;137;48.578;9.180;2022-11-27T05:56:07;6.40;;;4.47;;
305;SDS011;137;48.578;9.180;2022-11-27T05:58:35;5.53;;;5.00;;
305;SDS011;137;48.578;9.180;2022-11-27T06:01:02;6.27;;;4.90;;
305;SDS011;137;48.578;9.180;2022-11-27T06:03:31;6.20;;;5.50;;
305;SDS011;137;48.578;9.180;2022-11-27T06:06:03;5.33;;;4.83;;
305;SDS011;137;48.578;9.180;2022-11-27T06:08:31;16.17;;;10.73;;
305;SDS011;137;48.578;9.180;2022-11-27T06:10:58;25.63;;;15.07;;
305;SDS011;137;48.578;9.180;2022-11-27T06:13:24;29.23;;;16.97;;
305;SDS011;137;48.578;9.180;2022-11-27T06:15:51;17.10;;;11.20;;
305;SDS011;137;48.578;9.180;2022-11-27T06:18:18;7.67;;;6.47;;
305;SDS011;137;48.578;9.180;2022-11-27T06:20:46;7.63;;;5.33;;
305;SDS011;137;48.578;9.180;2022-11-27T06:23:13;6.70;;;4.63;;
305;SDS011;137;48.578;9.180;2022-11-27T06:25:40;5.70;;;5.00;;
305;SDS011;137;48.578;9.180;2022-11-27T06:28:06;7.77;;;5.30;;
305;SDS011;137;48.578;9.180;2022-11-27T06:30:33;8.53;;;5.40;;
305;SDS011;137;48.578;9.180;2022-11-27T06:33:02;7.80;;;6.20;;
305;SDS011;137;48.578;9.180;2022-11-27T06:35:28;22.10;;;8.60;;
305;SDS011;137;48.578;9.180;2022-11-27T06:37:57;98.33;;;14.40;;
305;SDS011;137;48.578;9.180;2022-11-27T06:40:24;188.90;;;30.50;;
305;SDS011;137;48.578;9.180;2022-11-27T06:42:50;255.03;;;30.10;;
305;SDS011;137;48.578;9.180;2022-11-27T06:45:17;68.37;;;16.93;;
305;SDS011;137;48.578;9.180;2022-11-27T06:47:44;102.67;;;18.83;;
305;SDS011;137;48.578;9.180;2022-11-27T06:50:11;72.63;;;11.50;;
305;SDS011;137;48.578;9.180;2022-11-27T06:52:37;80.80;;;11.90;;
305;SDS011;137;48.578;9.180;2022-11-27T06:55:06;66.83;;;12.50;;
305;SDS011;137;48.578;9.180;2022-11-27T06:57:33;62.43;;;11.20;;
305;SDS011;137;48.578;9.180;2022-11-27T07:00:00;84.87;;;12.10;;
305;SDS011;137;48.578;9.180;2022-11-27T07:02:27;43.23;;;9.30;;
305;SDS011;137;48.578;9.180;2022-11-27T07:04:54;98.67;;;13.60;;
305;SDS011;137;48.578;9.180;2022-11-27T07:07:20;62.20;;;12.03;;
305;SDS011;137;48.578;9.180;2022-11-27T07:09:47;122.03;;;17.00;;
305;SDS011;137;48.578;9.180;2022-11-27T07:12:15;72.87;;;11.80;;
305;SDS011;137;48.578;9.180;2022-11-27T07:14:42;110.07;;;14.40;;
305;SDS011;137;48.578;9.180;2022-11-27T07:17:09;107.00;;;13.80;;
305;SDS011;137;48.578;9.180;2022-11-27T07:19:36;76.93;;;12.10;;
305;SDS011;137;48.578;9.180;2022-11-27T07:22:02;95.30;;;15.80;;
305;SDS011;137;48.578;9.180;2022-11-27T07:24:29;51.57;;;10.17;;
305;SDS011;137;48.578;9.180;2022-11-27T07:26:56;93.57;;;14.47;;
305;SDS011;137;48.578;9.180;2022-11-27T07:29:24;89.57;;;16.10;;
305;SDS011;137;48.578;9.180;2022-11-27T07:31:51;36.20;;;8.60;;
305;SDS011;137;48.578;9.180;2022-11-27T07:34:18;42.30;;;11.07;;
305;SDS011;137;48.578;9.180;2022-11-27T07:36:45;41.50;;;10.30;;
305;SDS011;137;48.578;9.180;2022-11-27T07:39:11;60.37;;;13.40;;
305;SDS011;137;48.578;9.180;2022-11-27T07:41:38;65.17;;;13.87;;
305;SDS011;137;48.578;9.180;2022-11-27T07:44:05;101.80;;;14.90;;
305;SDS011;137;48.578;9.180;2022-11-27T07:46:33;63.97;;;12.50;;
305;SDS011;137;48.578;9.180;2022-11-27T07:49:00;45.40;;;10.80;;
305;SDS011;137;48.578;9.180;2022-11-27T07:51:28;153.07;;;17.73;;
305;SDS011;137;48.578;9.180;2022-11-27T07:53:55;50.67;;;12.17;;
305;SDS011;137;48.578;9.180;2022-11-27T07:56:22;53.13;;;11.50;;
305;SDS011;137;48.578;9.180;2022-11-27T07:58:49;40.57;;;10.60;;
305;SDS011;137;48.578;9.180;2022-11-27T08:01:17;42.30;;;11.67;;
305;SDS011;137;48.578;9.180;2022-11-27T08:03:46;24.13;;;10.03;;
305;SDS011;137;48.578;9.180;2022-11-27T08:06:17;64.10;;;12.27;;
305;SDS011;137;48.578;9.180;2022-11-27T08:08:45;47.63;;;11.00;;
305;SDS011;137;48.578;9.180;2022-11-27T08:11:19;37.23;;;10.70;;
305;SDS011;137;48.578;9.180;2022-11-27T08:13:48;36.40;;;10.37;;
305;SDS011;137;48.578;9.180;2022-11-27T08:16:15;27.10;;;7.70;;
305;SDS011;137;48.578;9.180;2022-11-27T08:18:42;32.80;;;8.47;;
305;SDS011;137;48.578;9.180;2022-11-27T08:21:10;11.93;;;5.53;;
305;SDS011;137;48.578;9.180;2022-11-27T08:23:37;14.13;;;5.23;;
305;SDS011;137;48.578;9.180;2022-11-27T08:26:04;13.93;;;5.93;;
305;SDS011;137;48.578;9.180;2022-11-27T08:28:32;6.50;;;5.63;;
305;SDS011;137;48.578;9.180;2022-11-27T08:30:59;5.23;;;4.77;;
305;SDS011;137;48.578;9.180;2022-11-27T08:33:27;6.73;;;5.20;;
305;SDS011;137;48.578;9.180;2022-11-27T08:35:54;5.37;;;4.80;;
305;SDS011;137;48.578;9.180;2022-11-27T08:38:22;7.77;;;6.20;;
305;SDS011;137;48.578;9.180;2022-11-27T08:40:53;6.30;;;5.70;;
305;SDS011;137;48.578;9.180;2022-11-27T08:43:20;6.53;;;5.23;;
305;SDS011;137;48.578;9.180;2022-11-27T08:45:47;8.50;;;5.60;;
305;SDS011;137;48.578;9.180;2022-11-27T08:48:14;8.40;;;6.50;;
305;SDS011;137;48.578;9.180;2022-11-27T08:50:41;9.90;;;7.97;;
305;SDS011;137;48.578;9.180;2022-11-27T08:53:08;15.13;;;12.77;;
305;SDS011;137;48.578;9.180;2022-11-27T08:55:36;14.90;;;10.40;;
305;SDS011;137;48.578;9.180;2022-11-27T08:58:03;18.13;;;13.10;;
305;SDS011;137;48.578;9.180;2022-11-27T09:00:30;14.80;;;11.23;;
305;SDS011;137;48.578;9.180;2022-11-27T09:02:58;11.20;;;10.10;;
305;SDS011;137;48.578;9.180;2022-11-27T09:05:25;11.63;;;10.13;;
305;SDS011;137;48.578;9.180;2022-11-27T09:07:51;10.23;;;8.93;;
305;SDS011;137;48.578;9.180;2022-11-27T09:10:18;9.70;;;8.80;;
305;SDS011;137;48.578;9.180;2022-11-27T09:12:48;9.00;;;8.07;;
305;SDS011;137;48.578;9.180;2022-11-27T09:15:15;7.93;;;6.47;;
305;SDS011;137;48.578;9.180;2022-11-27T09:17:43;6.47;;;5.87;;
305;SDS011;137;48.578;9.180;2022-11-27T09:20:10;7.30;;;6.60;;
305;SDS011;137;48.578;9.180;2022-11-27T09:22:38;7.50;;;6.83;;
305;SDS011;137;48.578;9.180;2022-11-27T09:25:05;8.80;;;8.00;;
305;SDS011;137;48.578;9.180;2022-11-27T09:27:33;10.33;;;7.20;;
305;SDS011;137;48.578;9.180;2022-11-27T09:30:02;8.50;;;7.70;;
305;SDS011;137;48.578;9.180;2022-11-27T09:32:31;7.20;;;6.17;;
305;SDS011;137;48.578;9.180;2022-11-27T09:34:58;8.27;;;6.20;;
305;SDS011;137;48.578;9.180;2022-11-27T09:37:25;7.73;;;6.93;;
305;SDS011;137;48.578;9.180;2022-11-27T09:39:51;6.73;;;6.03;;
305;SDS011;137;48.578;9.180;2022-11-27T09:42:26;8.57;;;7.37;;
305;SDS011;137;48.578;9.180;2022-11-27T09:45:04;7.27;;;6.67;;
305;SDS011;137;48.578;9.180;2022-11-27T09:47:37;7.67;;;6.87;;
305;SDS011;137;48.578;9.180;2022-11-27T09:50:07;9.30;;;8.00;;
305;SDS011;137;48.578;9.180;2022-11-27T09:52:40;8.73;;;7.70;;
305;SDS011;137;48.578;9.180;2022-11-27T09:55:12;8.80;;;7.20;;
305;SDS011;137;48.578;9.180;2022-11-27T09:57:41;9.50;;;7.53;;
305;SDS011;137;48.578;9.180;2022-11-27T10:00:14;7.70;;;6.90;;
305;SDS011;137;48.578;9.180;2022-11-27T10:02:43;8.50;;;7.73;;
305;SDS011;137;48.578;9.180;2022-11-27T10:05:12;6.30;;;5.70;;
305;SDS011;137;48.578;9.180;2022-11-27T10:07:45;8.80;;;7.90;;
305;SDS011;137;48.578;9.180;2022-11-27T10:10:29;6.40;;;5.80;;
305;SDS011;137;48.578;9.180;2022-11-27T10:13:03;6.80;;;6.10;;
305;SDS011;137;48.578;9.180;2022-11-27T10:15:41;6.30;;;5.80;;
305;SDS011;137;48.578;9.180;2022-11-27T10:18:16;6.63;;;5.00;;
305;SDS011;137;48.578;9.180;2022-11-27T10:20:52;5.37;;;4.90;;
305;SDS011;137;48.578;9.180;2022-11-27T10:23:23;5.40;;;4.90;;
305;SDS011;137;48.578;9.180;2022-11-27T10:26:03;5.63;;;4.43;;
305;SDS011;137;48.578;9.180;2022-11-27T10:28:37;5.30;;;4.53;;
305;SDS011;137;48.578;9.180;2022-11-27T10:31:11;5.37;;;4.87;;
305;SDS011;137;48.578;9.180;2022-11-27T10:33:40;5.20;;;4.67;;
305;SDS011;137;48.578;9.180;2022-11-27T10:36:13;4.90;;;4.33;;
305;SDS011;137;48.578;9.180;2022-11-27T10:38:43;4.40;;;3.67;;
305;SDS011;137;48.578;9.180;2022-11-27T10:41:12;5.33;;;4.77;;
305;SDS011;137;48.578;9.180;2022-11-27T10:43:42;6.30;;;5.73;;
305;SDS011;137;48.578;9.180;2022-11-27T10:46:14;5.57;;;4.60;;
305;SDS011;137;48.578;9.180;2022-11-27T10:48:45;6.80;;;5.13;;
305;SDS011;137;48.578;9.180;2022-11-27T10:51:13;5.23;;;4.73;;
305;SDS011;137;48.578;9.180;2022-11-27T10:53:44;6.53;;;5.93;;
305;SDS011;137;48.578;9.180;2022-11-27T10:56:18;6.10;;;5.43;;
305;SDS011;137;48.578;9.180;2022-11-27T10:59:05;6.63;;;5.30;;
305;SDS011;137;48.578;9.180;2022-11-27T11:01:43;5.67;;;4.50;;
305;SDS011;137;48.578;9.180;2022-11-27T11:04:12;5.57;;;5.07;;
305;SDS011;137;48.578;9.180;2022-11-27T11:06:42;4.90;;;4.50;;
305;SDS011;137;48.578;9.180;2022-11-27T11:09:14;4.63;;;4.23;;
305;SDS011;137;48.578;9.180;2022-11-27T11:11:43;5.20;;;4.70;;
305;SDS011;137;48.578;9.180;2022-11-27T11:14:14;4.60;;;4.20;;
305;SDS011;137;48.578;9.180;2022-11-27T11:16:43;4.60;;;4.20;;
305;SDS011;137;48.578;9.180;2022-11-27T11:19:20;4.60;;;4.20;;
305;SDS011;137;48.578;9.180;2022-11-27T11:21:48;4.63;;;4.23;;
305;SDS011;137;48.578;9.180;2022-11-27T11:24:17;5.00;;;3.87;;
305;SDS011;137;48.578;9.180;2022-11-27T11:26:49;4.70;;;4.30;;
305;SDS011;137;48.578;9.180;2022-11-27T11:29:23;4.30;;;3.80;;
305;SDS011;137;48.578;9.180;2022-11-27T11:32:02;4.77;;;4.27;;
305;SDS011;137;48.578;9.180;2022-11-27T11:34:34;5.73;;;3.93;;
305;SDS011;137;48.578;9.180;2022-11-27T11:37:06;5.63;;;4.40;;
305;SDS011;137;48.578;9.180;2022-11-27T11:39:43;5.40;;;4.20;;
305;SDS011;137;48.578;9.180;2022-11-27T11:42:17;5.37;;;4.87;;
305;SDS011;137;48.578;9.180;2022-11-27T11:44:48;6.87;;;5.20;;
305;SDS011;137;48.578;9.180;2022-11-27T11:47:18;5.73;;;5.13;;
305;SDS011;137;48.578;9.180;2022-11-27T11:49:47;6.10;;;5.30;;
305;SDS011;137;48.578;9.180;2022-11-27T11:52:16;5.53;;;5.03;;
305;SDS011;137;48.578;9.180;2022-11-27T11:54:54;6.03;;;3.50;;
305;SDS011;137;48.578;9.180;2022-11-27T11:57:37;4.97;;;4.50;;
305;SDS011;137;48.578;9.180;2022-11-27T12:00:40;3.83;;;3.40;;
305;SDS011;137;48.578;9.180;2022-11-27T12:03:16;4.73;;;4.33;;
305;SDS011;137;48.578;9.180;2022-11-27T12:06:01;6.80;;;5.37;;
305;SDS011;137;48.578;9.180;2022-11-27T12:08:47;4.70;;;4.30;;
305;SDS011;137;48.578;9.180;2022-11-27T12:11:21;3.93;;;3.53;;
305;SDS011;137;48.578;9.180;2022-11-27T12:14:03;4.77;;;3.67;;
305;SDS011;137;48.578;9.180;2022-11-27T12:16:40;5.73;;;5.10;;
305;SDS011;137;48.578;9.180;2022-11-27T12:19:32;4.83;;;4.40;;
305;SDS011;137;48.578;9.180;2022-11-27T12:22:38;4.30;;;3.90;;
305;SDS011;137;48.578;9.180;2022-11-27T12:25:27;5.53;;;4.70;;
305;SDS011;137;48.578;9.180;2022-11-27T12:28:05;4.17;;;3.77;;
305;SDS011;137;48.578;9.180;2022-11-27T12:30:47;3.40;;;3.10;;
305;SDS011;137;48.578;9.180;2022-11-27T12:33:23;3.30;;;3.00;;
305;SDS011;137;48.578;9.180;2022-11-27T12:36:05;4.50;;;3.67;;
305;SDS011;137;48.578;9.180;2022-11-27T12:38:46;4.37;;;3.63;;
305;SDS011;137;48.578;9.180;2022-11-27T12:41:30;4.33;;;3.93;;
305;SDS011;137;48.578;9.180;2022-11-27T12:44:15;4.30;;;3.77;;
305;SDS011;137;48.578;9.180;2022-11-27T12:46:49;5.47;;;4.10;;
305;SDS011;137;48.578;9.180;2022-11-27T12:49:23;4.40;;;4.00;;
305;SDS011;137;48.578;9.180;2022-11-27T12:51:55;4.00;;;3.60;;
305;SDS011;137;48.578;9.180;2022-11-27T12:54:28;3.93;;;3.53;;
305;SDS011;137;48.578;9.180;2022-11-27T12:56:58;5.93;;;3.80;;
305;SDS011;137;48.578;9.180;2022-11-27T12:59:31;4.40;;;3.97;;
305;SDS011;137;48.578;9.180;2022-11-27T13:02:04;4.87;;;4.40;;
305;SDS011;137;48.578;9.180;2022-11-27T13:04:48;5.20;;;4.73;;
305;SDS011;137;48.578;9.180;2022-11-27T13:07:23;5.07;;;4.03;;
305;SDS011;137;48.578;9.180;2022-11-27T13:09:53;7.67;;;4.53;;
305;SDS011;137;48.578;9.180;2022-11-27T13:12:27;4.20;;;3.80;;
305;SDS011;137;48.578;9.180;2022-11-27T13:14:58;4.30;;;3.90;;
305;SDS011;137;48.578;9.180;2022-11-27T13:17:32;5.47;;;4.73;;
305;SDS011;137;48.578;9.180;2022-11-27T13:20:02;4.70;;;3.83;;
305;SDS011;137;48.578;9.180;2022-11-27T13:22:32;5.50;;;4.33;;
305;SDS011;137;48.578;9.180;2022-11-27T13:25:01;6.07;;;4.57;;
305;SDS011;137;48.578;9.180;2022-11-27T13:27:30;5.60;;;4.97;;
305;SDS011;137;48.578;9.180;2022-11-27T13:30:01;4.90;;;4.37;;
305;SDS011;137;48.578;9.180;2022-11-27T13:32:31;4.47;;;3.50;;
305;SDS011;137;48.578;9.180;2022-11-27T13:35:35;4.80;;;4.07;;
305;SDS011;137;48.578;9.180;2022-11-27T13:38:08;4.40;;;4.00;;
305;SDS011;137;48.578;9.180;2022-11-27T13:40:38;4.73;;;4.23;;
305;SDS011;137;48.578;9.180;2022-11-27T13:43:15;4.50;;;3.97;;
305;SDS011;137;48.578;9.180;2022-11-27T13:45:47;4.23;;;3.83;;
305;SDS011;137;48.578;9.180;2022-11-27T13:48:22;5.38;;;4.65;;
305;SDS011;137;48.578;9.180;2022-11-27T13:50:55;7.83;;;5.17;;
305;SDS011;137;48.578;9.180;2022-11-27T13:53:30;7.67;;;4.93;;
305;SDS011;137;48.578;9.180;2022-11-27T13:55:58;5.30;;;4.50;;
305;SDS011;137;48.578;9.180;2022-11-27T13:58:29;6.47;;;5.50;;
305;SDS011;137;48.578;9.180;2022-11-27T14:00:58;7.37;;;6.30;;
305;SDS011;137;48.578;9.180;2022-11-27T14:03:36;5.27;;;4.77;;
305;SDS011;137;48.578;9.180;2022-11-27T14:06:13;6.10;;;5.50;;
305;SDS011;137;48.578;9.180;2022-11-27T14:08:49;7.67;;;5.13;;
305;SDS011;137;48.578;9.180;2022-11-27T14:11:27;5.63;;;5.13;;
305;SDS011;137;48.578;9.180;2022-11-27T14:13:57;4.77;;;4.20;;
305;SDS011;137;48.578;9.180;2022-11-27T14:16:27;5.73;;;4.57;;
305;SDS011;137;48.578;9.180;2022-11-27T14:18:56;6.53;;;5.23;;
305;SDS011;137;48.578;9.180;2022-11-27T14:21:25;6.67;;;5.43;;
305;SDS011;137;48.578;9.180;2022-11-27T14:24:20;6.10;;;5.30;;
305;SDS011;137;48.578;9.180;2022-11-27T14:26:49;5.23;;;4.73;;
305;SDS011;137;48.578;9.180;2022-11-27T14:29:18;6.40;;;5.27;;
305;SDS011;137;48.578;9.180;2022-11-27T14:31:53;6.07;;;5.20;;
305;SDS011;137;48.578;9.180;2022-11-27T14:34:25;6.47;;;5.60;;
305;SDS011;137;48.578;9.180;2022-11-27T14:36:53;5.73;;;5.23;;
305;SDS011;137;48.578;9.180;2022-11-27T14:39:22;6.40;;;5.80;;
305;SDS011;137;48.578;9.180;2022-11-27T14:41:57;9.43;;;5.97;;
305;SDS011;137;48.578;9.180;2022-11-27T14:44:25;7.13;;;6.43;;
305;SDS011;137;48.578;9.180;2022-11-27T14:46:52;6.73;;;6.13;;
305;SDS011;137;48.578;9.180;2022-11-27T14:49:22;6.00;;;5.40;;
305;SDS011;137;48.578;9.180;2022-11-27T14:51:50;7.73;;;5.90;;
305;SDS011;137;48.578;9.180;2022-11-27T14:54:21;5.57;;;5.03;;
305;SDS011;137;48.578;9.180;2022-11-27T14:56:51;4.97;;;4.47;;
305;SDS011;137;48.578;9.180;2022-11-27T14:59:19;5.20;;;4.70;;
305;SDS011;137;48.578;9.180;2022-11-27T15:01:56;4.63;;;4.23;;
305;SDS011;137;48.578;9.180;2022-11-27T15:04:25;6.30;;;3.93;;
305;SDS011;137;48.578;9.180;2022-11-27T15:07:06;4.97;;;4.57;;
305;SDS011;137;48.578;9.180;2022-11-27T15:09:54;5.20;;;4.70;;
305;SDS011;137;48.578;9.180;2022-11-27T15:12:36;8.93;;;5.03;;
305;SDS011;137;48.578;9.180;2022-11-27T15:15:13;7.80;;;6.87;;
305;SDS011;137;48.578;9.180;2022-11-27T15:18:00;6.03;;;5.43;;
305;SDS011;137;48.578;9.180;2022-11-27T15:20:32;5.80;;;5.20;;
305;SDS011;137;48.578;9.180;2022-11-27T15:23:02;8.13;;;5.77;;
305;SDS011;137;48.578;9.180;2022-11-27T15:25:39;6.97;;;6.07;;
305;SDS011;137;48.578;9.180;2022-11-27T15:28:26;7.50;;;6.50;;
305;SDS011;137;48.578;9.180;2022-11-27T15:30:59;8.80;;;7.20;;
305;SDS011;137;48.578;9.180;2022-11-27T15:33:55;10.00;;;7.00;;
305;SDS011;137;48.578;9.180;2022-11-27T15:36:33;8.70;;;6.83;;
305;SDS011;137;48.578;9.180;2022-11-27T15:41:58;7.83;;;7.13;;
305;SDS011;137;48.578;9.180;2022-11-27T15:44:28;10.07;;;9.07;;
305;SDS011;137;48.578;9.180;2022-11-27T15:46:58;8.43;;;7.63;;
305;SDS011;137;48.578;9.180;2022-11-27T15:49:43;7.20;;;6.10;;
305;SDS011;137;48.578;9.180;2022-11-27T15:52:32;6.20;;;5.30;;
305;SDS011;137;48.578;9.180;2022-11-27T15:54:58;6.10;;;5.60;;
305;SDS011;137;48.578;9.180;2022-11-27T15:57:27;5.93;;;5.33;;
305;SDS011;137;48.578;9.180;2022-11-27T15:59:53;4.67;;;4.20;;
305;SDS011;137;48.578;9.180;2022-11-27T16:02:20;4.00;;;3.60;;
305;SDS011;137;48.578;9.180;2022-11-27T16:04:47;6.40;;;4.50;;
305;SDS011;137;48.578;9.180;2022-11-27T16:07:14;6.10;;;4.63;;
305;SDS011;137;48.578;9.180;2022-11-27T16:09:41;8.17;;;5.23;;